Time;durP1;ratioP1;P1;durP2;ratioP2;P2;SDS_P1;SDS_P2;PMS_P1;PMS_P2;Temp;Humidity;BMP_temperature;BMP_pressure;BME280_temperature;BME280_humidity;BME280_pressure;Samples;Min_cycle;Max_cycle;Signal;HPM_P1;HPM_P2
2023/08/13 00:00:22;;;;;;;6.40;3.50;;;;;;;16.63;100.00;101591.72;105630;1261;72961;-45
2023/08/13 00:02:49;;;;;;;6.70;3.40;;;;;;;16.65;100.00;101594.63;105624;1258;65457;-45
2023/08/13 00:05:16;;;;;;;7.30;3.10;;;;;;;16.70;100.00;101596.27;105691;1260;72715;-45
2023/08/13 00:07:42;;;;;;;4.30;3.30;;;;;;;16.73;100.00;101592.34;105580;1261;61777;-45
2023/08/13 00:10:10;;;;;;;9.90;3.70;;;;;;;16.77;100.00;101588.73;105612;1260;60272;-45
2023/08/13 00:12:37;;;;;;;6.60;3.80;;;;;;;16.80;100.00;101581.36;105599;1260;72999;-45
2023/08/13 00:15:04;;;;;;;5.30;3.60;;;;;;;16.78;100.00;101580.35;105567;1257;64260;-45
2023/08/13 00:17:31;;;;;;;5.00;3.60;;;;;;;16.74;100.00;101578.20;105607;1258;72428;-45
2023/08/13 00:19:58;;;;;;;5.80;3.20;;;;;;;16.71;100.00;101579.16;105605;1256;60725;-45
2023/08/13 00:22:25;;;;;;;8.40;4.00;;;;;;;16.67;100.00;101585.52;105634;1257;60291;-45
2023/08/13 00:24:54;;;;;;;10.40;3.90;;;;;;;16.67;100.00;101586.04;105680;1261;72960;-45
2023/08/13 00:27:21;;;;;;;14.00;4.10;;;;;;;16.64;100.00;101586.11;105619;1260;66158;-45
2023/08/13 00:29:48;;;;;;;6.60;3.70;;;;;;;16.63;100.00;101585.63;105659;1258;72771;-45
2023/08/13 00:32:15;;;;;;;6.50;3.90;;;;;;;16.61;100.00;101590.20;105635;1261;61925;-45
2023/08/13 00:34:43;;;;;;;9.70;3.80;;;;;;;16.58;100.00;101588.20;105598;1261;59725;-45
2023/08/13 00:37:10;;;;;;;5.20;3.80;;;;;;;16.54;100.00;101581.85;105630;1260;72852;-45
2023/08/13 00:39:36;;;;;;;11.00;3.50;;;;;;;16.51;100.00;101585.05;105532;1263;65051;-45
2023/08/13 00:42:04;;;;;;;10.10;3.80;;;;;;;16.48;100.00;101584.27;105611;1257;72824;-45
2023/08/13 00:44:31;;;;;;;5.90;4.60;;;;;;;16.48;100.00;101583.23;105593;1260;60897;-45
2023/08/13 00:46:58;;;;;;;7.40;3.80;;;;;;;16.46;100.00;101581.71;105243;1257;60597;-46
2023/08/13 00:49:25;;;;;;;4.10;3.70;;;;;;;16.45;100.00;101577.38;105484;1257;73627;-45
2023/08/13 00:51:53;;;;;;;5.10;3.60;;;;;;;16.42;100.00;101572.23;105605;1257;65389;-45
2023/08/13 00:54:21;;;;;;;9.00;4.00;;;;;;;16.43;100.00;101572.73;105458;1257;72690;-45
2023/08/13 00:56:48;;;;;;;6.70;3.80;;;;;;;16.41;100.00;101571.23;105503;1257;61931;-45
2023/08/13 00:59:15;;;;;;;4.40;3.90;;;;;;;16.37;100.00;101571.82;105256;1257;60440;-46
2023/08/13 01:01:42;;;;;;;6.80;4.00;;;;;;;16.34;100.00;101570.85;105565;1260;73894;-45
2023/08/13 01:04:09;;;;;;;5.20;4.00;;;;;;;16.33;100.00;101568.97;105574;1260;65438;-46
2023/08/13 01:06:42;;;;;;;5.90;4.10;;;;;;;16.32;100.00;101567.41;105655;1257;72625;-45
2023/08/13 01:09:39;;;;;;;6.10;3.90;;;;;;;16.31;100.00;101563.96;105597;1257;61831;-45
2023/08/13 01:12:22;;;;;;;;;;;;;;;16.26;100.00;101563.03;105496;1257;60476;-45
2023/08/13 01:15:05;;;;;;;6.50;4.00;;;;;;;16.22;100.00;101562.60;105598;1260;73699;-45
2023/08/13 01:17:33;;;;;;;10.50;4.30;;;;;;;16.19;100.00;101556.06;105609;1257;65445;-47
2023/08/13 01:20:00;;;;;;;12.20;5.00;;;;;;;16.15;100.00;101556.33;105636;1260;71348;-46
2023/08/13 01:22:28;;;;;;;4.30;3.70;;;;;;;16.12;100.00;101548.58;105494;1263;60447;-45
2023/08/13 01:24:55;;;;;;;8.40;4.60;;;;;;;16.09;100.00;101541.68;105571;1257;60447;-45
2023/08/13 01:27:25;;;;;;;7.90;4.40;;;;;;;16.06;100.00;101538.61;105411;1263;73724;-45
2023/08/13 01:29:54;;;;;;;9.90;4.30;;;;;;;16.04;100.00;101536.41;105478;1263;65557;-45
2023/08/13 01:32:26;;;;;;;4.90;4.00;;;;;;;16.00;100.00;101529.00;105487;1261;71525;-45
2023/08/13 01:34:53;;;;;;;7.40;4.60;;;;;;;15.97;100.00;101532.05;105593;1257;60535;-45
2023/08/13 01:37:20;;;;;;;7.60;5.20;;;;;;;15.95;100.00;101527.23;105274;1257;60427;-46
2023/08/13 01:39:47;;;;;;;6.80;4.00;;;;;;;15.93;100.00;101513.01;105492;1263;73702;-46
2023/08/13 01:42:14;;;;;;;4.80;3.60;;;;;;;15.91;100.00;101509.05;105611;1257;64516;-45
2023/08/13 01:44:42;;;;;;;5.20;4.70;;;;;;;15.88;100.00;101502.30;105617;1256;72544;-45
2023/08/13 01:47:09;;;;;;;5.80;4.60;;;;;;;15.84;100.00;101495.25;105583;1260;60419;-45
2023/08/13 01:49:36;;;;;;;6.10;4.80;;;;;;;15.80;100.00;101488.20;105479;1257;60444;-46
2023/08/13 01:52:03;;;;;;;7.40;4.50;;;;;;;15.75;100.00;101479.80;105487;1258;73776;-46
2023/08/13 01:54:30;;;;;;;5.00;4.30;;;;;;;15.71;100.00;101473.80;105358;1263;65412;-46
2023/08/13 01:56:57;;;;;;;7.20;4.40;;;;;;;15.69;100.00;101462.36;105512;1257;72618;-45
2023/08/13 01:59:24;;;;;;;10.10;4.50;;;;;;;15.66;100.00;101457.73;105530;1257;61917;-46
2023/08/13 02:01:51;;;;;;;11.70;4.50;;;;;;;15.64;100.00;101452.57;105679;1254;60437;-46
2023/08/13 02:04:18;;;;;;;9.10;4.80;;;;;;;15.60;100.00;101444.48;105854;1254;75078;-46
2023/08/13 02:06:45;;;;;;;13.90;4.50;;;;;;;15.56;100.00;101432.58;105641;1260;65546;-48
2023/08/13 02:09:12;;;;;;;5.50;3.80;;;;;;;15.52;100.00;101429.53;105755;1254;72676;-47
2023/08/13 02:11:39;;;;;;;9.00;4.40;;;;;;;15.48;100.00;101423.36;105828;1253;61988;-47
2023/08/13 02:14:06;;;;;;;9.30;3.70;;;;;;;15.45;100.00;101409.70;105700;1254;60437;-47
2023/08/13 02:16:33;;;;;;;9.10;4.20;;;;;;;15.40;100.00;101407.38;105650;1257;73940;-45
2023/08/13 02:19:00;;;;;;;8.70;5.10;;;;;;;15.34;100.00;101400.56;105667;1257;65528;-48
2023/08/13 02:21:27;;;;;;;8.40;4.00;;;;;;;15.31;100.00;101396.48;105897;1257;72392;-49
2023/08/13 02:23:54;;;;;;;13.10;4.80;;;;;;;15.30;100.00;101389.54;105904;1257;62012;-46
2023/08/13 02:26:21;;;;;;;14.10;5.10;;;;;;;15.28;100.00;101379.66;105682;1254;61123;-46
2023/08/13 02:28:48;;;;;;;12.60;5.60;;;;;;;15.24;100.00;101370.19;105853;1257;74300;-46
2023/08/13 02:31:14;;;;;;;14.30;4.90;;;;;;;15.19;100.00;101363.16;105893;1257;65464;-46
2023/08/13 02:33:42;;;;;;;15.80;6.40;;;;;;;15.15;100.00;101359.09;105936;1257;72566;-45
2023/08/13 02:36:08;;;;;;;11.60;5.10;;;;;;;15.13;100.00;101354.98;105694;1254;62073;-45
2023/08/13 02:38:36;;;;;;;14.50;4.70;;;;;;;15.11;100.00;101344.23;105940;1253;60638;-46
2023/08/13 02:41:03;;;;;;;8.60;4.50;;;;;;;15.09;100.00;101339.92;105866;1256;73794;-46
2023/08/13 02:43:52;;;;;;;8.10;4.30;;;;;;;15.08;100.00;101330.58;105898;1254;65416;-46
2023/08/13 02:46:20;;;;;;;9.60;4.40;;;;;;;15.07;100.00;101324.85;105913;1257;72690;-46
2023/08/13 02:48:47;;;;;;;7.50;4.80;;;;;;;15.06;100.00;101322.13;105660;1258;60688;-45
2023/08/13 02:51:15;;;;;;;9.30;4.90;;;;;;;15.06;100.00;101315.84;105668;1254;60482;-46
2023/08/13 02:53:42;;;;;;;12.00;5.40;;;;;;;15.07;100.00;101313.23;105670;1259;73698;-46
2023/08/13 02:56:09;;;;;;;12.10;6.10;;;;;;;15.07;100.00;101311.83;105884;1254;65439;-46
2023/08/13 02:58:37;;;;;;;11.50;5.30;;;;;;;15.06;100.00;101309.40;105862;1254;72558;-46
2023/08/13 03:01:04;;;;;;;13.20;5.50;;;;;;;15.06;100.00;101312.39;105903;1257;62025;-46
2023/08/13 03:03:31;;;;;;;6.80;4.80;;;;;;;15.05;100.00;101308.58;105689;1254;60699;-46
2023/08/13 03:06:09;;;;;;;4.80;4.40;;;;;;;15.08;100.00;101305.70;105877;1253;72460;-45
2023/08/13 03:08:36;;;;;;;8.70;4.30;;;;;;;15.11;100.00;101302.68;105923;1254;65139;-46
2023/08/13 03:11:03;;;;;;;9.90;4.10;;;;;;;15.13;100.00;101300.73;105899;1256;72715;-46
2023/08/13 03:13:31;;;;;;;8.50;4.50;;;;;;;15.12;100.00;101296.05;105692;1254;61788;-46
2023/08/13 03:15:58;;;;;;;10.10;4.00;;;;;;;15.13;100.00;101297.77;105789;1254;60424;-46
2023/08/13 03:18:26;;;;;;;10.40;4.20;;;;;;;15.16;100.00;101293.19;105917;1254;73943;-47
2023/08/13 03:20:53;;;;;;;11.70;4.20;;;;;;;15.18;100.00;101291.41;105857;1253;65427;-46
2023/08/13 03:23:21;;;;;;;7.30;4.40;;;;;;;15.19;100.00;101287.18;105917;1253;72624;-46
2023/08/13 03:25:48;;;;;;;5.20;4.10;;;;;;;15.23;100.00;101288.67;105889;1253;61894;-46
2023/08/13 03:28:15;;;;;;;7.90;4.30;;;;;;;15.27;100.00;101288.05;105948;1254;60459;-46
2023/08/13 03:30:42;;;;;;;12.20;4.50;;;;;;;15.33;100.00;101290.36;105937;1254;73821;-47
2023/08/13 03:33:09;;;;;;;17.80;4.60;;;;;;;15.39;100.00;101285.67;105662;1254;65523;-46
2023/08/13 03:35:37;;;;;;;6.20;4.10;;;;;;;15.46;100.00;101283.23;105861;1254;72726;-46
2023/08/13 03:38:04;;;;;;;10.80;4.40;;;;;;;15.54;100.00;101286.52;105746;1253;61638;-45
2023/08/13 03:40:32;;;;;;;10.50;3.90;;;;;;;15.61;100.00;101284.92;105935;1253;60533;-47
2023/08/13 03:42:59;;;;;;;13.40;4.20;;;;;;;15.69;100.00;101285.93;105869;1254;72834;-45
2023/08/13 03:45:29;;;;;;;5.80;4.20;;;;;;;15.80;100.00;101292.45;105835;1254;65451;-46
2023/08/13 03:47:57;;;;;;;13.40;4.00;;;;;;;15.93;100.00;101299.42;105743;1254;72608;-47
2023/08/13 03:50:24;;;;;;;10.60;4.00;;;;;;;16.03;100.00;101306.45;105919;1257;61849;-46
2023/08/13 03:52:51;;;;;;;7.30;4.40;;;;;;;16.14;100.00;101319.23;105960;1253;60539;-45
2023/08/13 03:55:18;;;;;;;7.20;4.40;;;;;;;16.25;100.00;101325.17;105901;1254;73752;-47
2023/08/13 03:57:45;;;;;;;10.80;3.80;;;;;;;16.44;100.00;101335.95;105894;1256;65473;-46
2023/08/13 04:00:13;;;;;;;7.20;3.80;;;;;;;16.69;100.00;101343.59;105733;1258;72696;-46
2023/08/13 04:02:48;;;;;;;10.10;4.50;;;;;;;17.00;100.00;101356.61;105647;1254;60501;-44
2023/08/13 04:05:16;;;;;;;4.00;3.60;;;;;;;17.33;100.00;101377.41;105618;1254;60441;-45
2023/08/13 04:07:43;;;;;;;6.50;4.20;;;;;;;17.62;100.00;101403.84;105671;1254;73695;-45
2023/08/13 04:10:10;;;;;;;10.70;4.90;;;;;;;17.89;100.00;101459.70;105701;1254;65436;-45
2023/08/13 04:12:36;;;;;;;5.90;3.90;;;;;;;18.14;100.00;101543.79;105910;1254;72628;-45
2023/08/13 04:15:04;;;;;;;7.60;3.80;;;;;;;18.36;100.00;101633.58;105852;1253;60377;-45
2023/08/13 04:17:31;;;;;;;3.90;3.50;;;;;;;18.59;100.00;101692.77;105917;1256;60358;-45
2023/08/13 04:19:58;;;;;;;10.80;3.40;;;;;;;18.85;100.00;101706.95;105712;1254;73730;-45
2023/08/13 04:22:25;;;;;;;10.10;3.90;;;;;;;19.14;100.00;101693.95;105910;1257;65423;-45
2023/08/13 04:24:53;;;;;;;6.50;3.50;;;;;;;19.39;100.00;101645.99;105688;1254;72565;-45
2023/08/13 04:27:20;;;;;;;5.90;3.70;;;;;;;19.68;100.00;101583.66;105642;1260;60501;-45
2023/08/13 04:29:48;;;;;;;4.10;3.70;;;;;;;19.92;100.00;101466.05;105841;1254;60440;-45
2023/08/13 04:32:15;;;;;;;6.20;3.80;;;;;;;20.07;100.00;101292.92;105705;1253;73799;-46
2023/08/13 04:34:42;;;;;;;5.30;4.00;;;;;;;20.18;100.00;101141.91;105694;1257;65465;-45
2023/08/13 04:37:09;;;;;;;5.20;3.70;;;;;;;20.22;100.00;101005.44;105871;1254;72659;-45
2023/08/13 04:39:37;;;;;;;8.10;3.50;;;;;;;20.32;100.00;100954.94;105898;1254;60491;-45
2023/08/13 04:42:04;;;;;;;4.10;3.40;;;;;;;20.47;100.00;100940.19;105890;1254;60472;-44
2023/08/13 04:44:31;;;;;;;4.80;4.30;;;;;;;20.62;100.00;100916.23;105681;1254;72816;-45
2023/08/13 04:46:58;;;;;;;7.70;3.80;;;;;;;20.67;100.00;100839.38;105720;1256;65525;-45
2023/08/13 04:49:25;;;;;;;9.00;3.20;;;;;;;20.67;100.00;100809.71;105671;1254;72727;-45
2023/08/13 04:51:53;;;;;;;8.90;3.70;;;;;;;20.71;100.00;100799.05;105926;1256;60428;-48
2023/08/13 04:54:20;;;;;;;5.30;4.00;;;;;;;20.70;100.00;100780.46;105881;1254;60444;-48
2023/08/13 04:56:47;;;;;;;12.20;4.90;;;;;;;20.70;100.00;100773.80;105801;1254;73582;-50
2023/08/13 04:59:14;;;;;;;3.90;3.60;;;;;;;20.80;100.00;100786.44;105893;1254;65168;-46
2023/08/13 05:01:42;;;;;;;9.00;4.00;;;;;;;20.92;100.00;100794.01;105696;1254;72555;-46
2023/08/13 05:04:08;;;;;;;6.30;3.50;;;;;;;21.00;100.00;100777.42;105762;1257;60371;-46
2023/08/13 05:06:36;;;;;;;8.10;4.60;;;;;;;21.13;100.00;100782.63;105904;1254;60539;-46
2023/08/13 05:09:04;;;;;;;7.70;3.80;;;;;;;21.34;100.00;100784.23;105888;1254;73817;-45
2023/08/13 05:11:31;;;;;;;5.10;4.10;;;;;;;21.46;100.00;100773.03;105933;1257;65456;-44
2023/08/13 05:13:59;;;;;;;10.90;3.50;;;;;;;21.55;100.00;100773.55;105980;1254;72599;-46
2023/08/13 05:16:26;;;;;;;8.70;3.80;;;;;;;21.49;100.00;100791.45;105903;1256;60431;-45
2023/08/13 05:18:54;;;;;;;6.00;3.80;;;;;;;21.36;100.00;100798.02;105858;1253;60466;-47
2023/08/13 05:21:21;;;;;;;6.10;4.30;;;;;;;21.35;100.00;100796.50;105717;1257;73793;-46
2023/08/13 05:23:48;;;;;;;8.50;4.20;;;;;;;21.26;100.00;100799.80;105663;1259;64357;-46
2023/08/13 05:26:15;;;;;;;4.60;3.90;;;;;;;21.20;100.00;100796.29;105808;1254;72654;-46
2023/08/13 05:28:42;;;;;;;4.00;3.70;;;;;;;21.18;100.00;100799.75;105683;1254;61691;-46
2023/08/13 05:31:10;;;;;;;5.70;4.20;;;;;;;21.15;100.00;100804.11;105698;1257;61212;-46
2023/08/13 05:33:37;;;;;;;7.80;4.10;;;;;;;21.15;100.00;100808.15;105869;1254;73754;-46
2023/08/13 05:36:06;;;;;;;10.00;4.10;;;;;;;21.11;100.00;100812.95;105694;1257;65511;-46
2023/08/13 05:38:33;;;;;;;8.10;3.80;;;;;;;21.07;100.00;100824.55;105841;1254;71934;-46
2023/08/13 05:41:00;;;;;;;5.20;4.20;;;;;;;21.05;100.00;100830.65;105929;1256;61986;-46
2023/08/13 05:43:28;;;;;;;9.10;4.60;;;;;;;21.00;100.00;100829.55;105706;1254;60486;-46
2023/08/13 05:45:55;;;;;;;6.60;4.20;;;;;;;20.89;100.00;100842.39;105874;1256;73777;-46
2023/08/13 05:48:22;;;;;;;6.50;4.20;;;;;;;20.83;100.00;100866.05;105925;1256;65536;-47
2023/08/13 05:50:49;;;;;;;12.70;4.50;;;;;;;20.84;100.00;100890.07;105683;1257;72750;-47
2023/08/13 05:53:16;;;;;;;4.50;4.20;;;;;;;20.87;100.00;100909.69;105855;1256;60358;-47
2023/08/13 05:55:44;;;;;;;9.00;4.90;;;;;;;20.96;100.00;100926.56;105930;1253;60566;-46
2023/08/13 05:58:11;;;;;;;10.30;5.00;;;;;;;21.08;100.00;100939.09;105942;1253;73807;-47
2023/08/13 06:00:38;;;;;;;4.90;4.40;;;;;;;21.23;100.00;100940.36;105911;1256;66470;-47
2023/08/13 06:03:05;;;;;;;12.40;4.50;;;;;;;21.32;100.00;100937.93;105895;1254;72688;-47
2023/08/13 06:05:32;;;;;;;6.80;4.50;;;;;;;21.37;100.00;100927.29;105916;1256;61987;-46
2023/08/13 06:07:59;;;;;;;4.70;4.30;;;;;;;21.43;100.00;100929.09;105885;1254;60530;-46
2023/08/13 06:10:26;;;;;;;7.90;4.80;;;;;;;21.43;100.00;100906.61;105890;1254;73636;-47
2023/08/13 06:12:53;;;;;;;10.50;5.20;;;;;;;21.39;100.00;100894.39;105875;1254;65466;-47
2023/08/13 06:15:19;;;;;;;7.50;5.50;;;;;;;21.41;100.00;100911.62;105879;1257;72549;-47
2023/08/13 06:17:48;;;;;;;15.10;4.90;;;;;;;21.41;100.00;100901.12;105852;1256;61996;-48
2023/08/13 06:20:15;;;;;;;11.20;4.60;;;;;;;21.41;100.00;100896.04;105879;1254;60418;-48
2023/08/13 06:22:42;;;;;;;7.10;4.60;;;;;;;21.42;100.00;100889.45;105916;1256;73699;-47
2023/08/13 06:25:09;;;;;;;8.90;5.00;;;;;;;21.49;100.00;100889.22;105872;1256;65482;-48
2023/08/13 06:27:36;;;;;;;7.30;4.50;;;;;;;21.56;100.00;100886.02;105955;1257;72494;-47
2023/08/13 06:30:04;;;;;;;11.40;4.50;;;;;;;21.64;100.00;100878.70;105879;1254;60561;-47
2023/08/13 06:32:37;;;;;;;8.80;4.60;;;;;;;21.77;100.00;100888.91;105902;1256;60408;-47
2023/08/13 06:35:04;;;;;;;7.80;4.30;;;;;;;21.86;100.00;100877.64;105936;1253;73910;-47
2023/08/13 06:37:31;;;;;;;7.70;4.50;;;;;;;21.95;100.00;100856.73;105894;1256;65385;-47
2023/08/13 06:40:10;;;;;;;7.40;4.70;;;;;;;22.07;100.00;100848.33;105698;1255;72664;-47
2023/08/13 06:42:37;;;;;;;13.40;4.80;;;;;;;22.22;100.00;100849.17;105892;1256;62045;-47
2023/08/13 06:45:05;;;;;;;7.30;4.40;;;;;;;22.36;100.00;100842.66;105854;1253;61771;-47
2023/08/13 06:47:32;;;;;;;49.40;6.40;;;;;;;22.52;100.00;100834.00;105899;1256;72713;-48
2023/08/13 06:49:59;;;;;;;10.60;4.50;;;;;;;22.66;100.00;100831.69;105905;1257;64128;-47
2023/08/13 06:52:26;;;;;;;6.40;4.10;;;;;;;22.71;100.00;100824.20;105907;1254;72634;-46
2023/08/13 06:54:53;;;;;;;6.30;4.40;;;;;;;22.63;100.00;100831.70;105894;1256;61660;-47
2023/08/13 06:57:20;;;;;;;8.10;4.90;;;;;;;22.52;100.00;100843.45;105770;1254;60755;-47
2023/08/13 06:59:48;;;;;;;12.90;4.60;;;;;;;22.52;100.00;100838.55;105882;1254;73690;-46
2023/08/13 07:02:15;;;;;;;13.00;4.10;;;;;;;22.62;100.00;100832.11;105844;1253;65309;-47
2023/08/13 07:04:42;;;;;;;13.60;4.40;;;;;;;22.73;100.00;100831.98;105881;1254;72663;-47
2023/08/13 07:07:09;;;;;;;4.70;4.30;;;;;;;22.84;100.00;100833.23;105837;1256;60432;-47
2023/08/13 07:09:37;;;;;;;8.30;4.80;;;;;;;22.91;100.00;100837.70;105944;1254;60802;-46
2023/08/13 07:12:05;;;;;;;10.20;4.50;;;;;;;23.05;100.00;100838.38;105883;1254;73837;-47
2023/08/13 07:14:32;;;;;;;17.60;5.50;;;;;;;23.14;100.00;100856.95;105903;1256;65357;-47
2023/08/13 07:16:59;;;;;;;24.60;5.10;;;;;;;23.19;100.00;100873.70;105836;1254;72556;-47
2023/08/13 07:19:26;;;;;;;25.70;4.90;;;;;;;23.25;100.00;100890.92;105856;1256;62012;-47
2023/08/13 07:21:53;;;;;;;6.90;4.20;;;;;;;23.34;100.00;100898.45;105911;1254;60503;-46
2023/08/13 07:24:20;;;;;;;7.30;5.10;;;;;;;23.51;100.00;100909.02;105922;1256;73830;-46
2023/08/13 07:26:46;;;;;;;12.80;4.90;;;;;;;23.60;100.00;100937.08;105877;1256;65506;-47
2023/08/13 07:29:13;;;;;;;24.30;4.50;;;;;;;23.66;100.00;100975.13;105913;1254;72656;-47
2023/08/13 07:31:41;;;;;;;10.30;3.70;;;;;;;23.71;100.00;101003.86;105809;1256;60536;-47
2023/08/13 07:34:08;;;;;;;13.00;3.60;;;;;;;23.72;100.00;101048.36;105751;1254;60530;-48
2023/08/13 07:36:35;;;;;;;8.30;4.20;;;;;;;23.82;100.00;101057.73;105899;1256;73796;-49
2023/08/13 07:39:02;;;;;;;5.40;3.90;;;;;;;23.89;100.00;101073.73;105914;1254;65459;-46
2023/08/13 07:41:29;;;;;;;4.90;3.60;;;;;;;23.94;100.00;101086.80;105905;1257;72618;-46
2023/08/13 07:43:56;;;;;;;5.40;4.00;;;;;;;24.08;100.00;101074.27;105897;1256;61801;-49
2023/08/13 07:46:24;;;;;;;6.20;3.60;;;;;;;24.30;100.00;101064.33;105890;1254;60325;-45
2023/08/13 07:48:51;;;;;;;4.00;3.60;;;;;;;24.53;100.00;101062.48;105954;1256;73901;-46
2023/08/13 07:51:18;;;;;;;3.40;3.10;;;;;;;24.78;100.00;101056.20;105928;1256;65408;-45
2023/08/13 07:53:45;;;;;;;6.10;3.50;;;;;;;24.96;100.00;101068.58;105911;1254;72684;-46
2023/08/13 07:56:13;;;;;;;4.60;3.10;;;;;;;25.17;100.00;101098.73;105885;1256;60369;-46
2023/08/13 07:58:39;;;;;;;3.90;3.00;;;;;;;25.33;100.00;101101.34;105979;1253;60545;-47
2023/08/13 08:01:07;;;;;;;7.20;2.40;;;;;;;25.38;95.32;101097.41;105901;1256;73814;-46
2023/08/13 08:03:34;;;;;;;8.80;2.60;;;;;;;25.46;88.47;101105.50;105914;1256;65938;-47
2023/08/13 08:06:01;;;;;;;5.80;2.20;;;;;;;25.52;86.39;101115.38;105894;1254;72672;-45
2023/08/13 08:08:34;;;;;;;7.60;2.50;;;;;;;25.63;76.76;101070.20;105818;1257;60434;-45
2023/08/13 08:11:01;;;;;;;2.80;1.60;;;;;;;25.68;68.45;100983.66;105852;1256;60345;-46
2023/08/13 08:13:31;;;;;;;3.80;1.80;;;;;;;25.62;62.83;100901.21;105882;1253;73726;-46
2023/08/13 08:15:59;;;;;;;2.50;1.90;;;;;;;25.58;61.89;100919.58;105912;1256;65529;-47
2023/08/13 08:18:28;;;;;;;2.70;1.50;;;;;;;25.59;64.24;101016.66;105858;1254;72709;-46
2023/08/13 08:20:54;;;;;;;1.70;1.60;;;;;;;25.70;64.70;101036.14;105858;1254;60568;-47
2023/08/13 08:23:21;;;;;;;5.70;2.10;;;;;;;25.85;65.49;101058.75;105939;1254;60433;-47
2023/08/13 08:25:48;;;;;;;3.00;1.70;;;;;;;25.89;63.76;101017.77;105906;1254;73713;-47
2023/08/13 08:28:15;;;;;;;1.90;1.70;;;;;;;25.94;63.38;101019.58;105889;1256;65305;-46
2023/08/13 08:30:42;;;;;;;2.80;1.80;;;;;;;25.99;62.43;101002.54;105828;1254;72681;-46
2023/08/13 08:33:09;;;;;;;6.20;1.70;;;;;;;25.89;58.64;100888.93;105880;1256;60457;-46
2023/08/13 08:35:36;;;;;;;5.40;1.50;;;;;;;25.82;57.14;100838.55;105906;1253;60310;-46
2023/08/13 08:38:03;;;;;;;4.10;1.70;;;;;;;25.64;57.33;100887.08;105892;1256;73770;-46
2023/08/13 08:40:30;;;;;;;2.90;2.00;;;;;;;25.57;58.70;100967.52;105883;1256;65399;-49
2023/08/13 08:42:57;;;;;;;7.70;1.50;;;;;;;25.63;58.08;100939.67;105847;1254;71178;-48
2023/08/13 08:45:24;;;;;;;2.50;1.70;;;;;;;25.70;57.81;100940.20;105839;1256;60429;-48
2023/08/13 08:47:51;;;;;;;6.30;1.60;;;;;;;25.74;57.08;100901.94;105900;1254;60540;-48
2023/08/13 08:50:18;;;;;;;7.30;1.90;;;;;;;25.77;56.43;100886.98;105413;1259;396461;-49
2023/08/13 08:54:37;;;;;;;3.30;1.50;;;;;;;25.95;55.61;100851.40;102502;1295;600490;-46
2023/08/13 08:57:05;;;;;;;3.40;1.70;;;;;;;25.96;54.04;100765.23;105572;1263;60385;-46
2023/08/13 08:59:32;;;;;;;1.70;1.20;;;;;;;25.92;53.52;100747.13;105536;1259;60221;-48
2023/08/13 09:01:59;;;;;;;1.90;1.40;;;;;;;26.01;53.22;100735.33;105562;1262;72246;-47
2023/08/13 09:04:27;;;;;;;3.90;1.60;;;;;;;26.10;53.61;100780.20;105600;1263;64409;-47
2023/08/13 09:06:59;;;;;;;7.20;1.60;;;;;;;26.20;53.01;100748.85;105472;1263;220380;-46
2023/08/13 09:09:26;;;;;;;2.50;1.80;;;;;;;26.25;52.04;100668.19;105635;1259;60223;-46
2023/08/13 09:11:54;;;;;;;2.70;1.30;;;;;;;26.20;52.67;100738.45;105628;1257;60278;-46
2023/08/13 09:14:21;;;;;;;6.50;1.50;;;;;;;26.12;51.06;100608.39;105626;1258;71112;-46
2023/08/13 09:16:52;;;;;;;6.80;2.00;;;;;;;26.04;52.11;100723.92;105637;1260;65507;-46
2023/08/13 09:19:20;;;;;;;3.80;1.40;;;;;;;26.03;52.53;100771.55;105726;1256;72579;-47
2023/08/13 09:21:53;;;;;;;7.20;1.60;;;;;;;26.02;51.82;100723.73;105659;1260;60338;-46
2023/08/13 09:24:39;;;;;;;3.30;1.40;;;;;;;26.11;51.75;100731.14;105747;1254;60354;-47
2023/08/13 09:27:06;;;;;;;3.20;1.50;;;;;;;26.13;50.20;100595.05;105651;1258;72885;-48
2023/08/13 09:29:35;;;;;;;2.60;1.50;;;;;;;26.11;50.41;100618.20;105700;1257;64772;-47
2023/08/13 09:32:02;;;;;;;1.70;1.10;;;;;;;26.17;50.64;100651.87;105669;1257;73016;-48
2023/08/13 09:34:30;;;;;;;1.00;1.00;;;;;;;26.24;50.41;100638.23;105713;1254;60450;-48
2023/08/13 09:36:57;;;;;;;3.60;1.50;;;;;;;26.24;47.94;100396.28;105693;1254;60284;-48
2023/08/13 09:39:25;;;;;;;3.30;1.40;;;;;;;26.22;49.23;100525.16;105678;1254;73052;-47
2023/08/13 09:41:52;;;;;;;2.20;1.30;;;;;;;26.29;49.76;100600.70;105643;1257;65477;-46
2023/08/13 09:44:21;;;;;;;3.70;1.30;;;;;;;26.36;50.03;100632.93;105663;1257;72632;-47
2023/08/13 09:46:49;;;;;;;2.40;1.30;;;;;;;26.47;49.84;100643.58;105658;1258;59640;-46
2023/08/13 09:49:16;;;;;;;4.10;1.50;;;;;;;26.47;47.98;100439.42;105603;1263;60025;-47
2023/08/13 09:51:44;;;;;;;2.30;1.40;;;;;;;26.32;48.51;100489.89;105624;1260;73024;-47
2023/08/13 09:54:21;;;;;;;4.20;1.50;;;;;;;26.31;47.34;100394.11;105613;1259;65350;-47
2023/08/13 09:56:51;;;;;;;2.60;1.50;;;;;;;26.27;47.75;100437.61;105606;1259;72531;-48
2023/08/13 09:59:18;;;;;;;1.60;1.30;;;;;;;26.33;48.85;100573.63;105639;1259;60224;-48
2023/08/13 10:01:45;;;;;;;10.00;1.50;;;;;;;26.42;48.06;100463.08;105654;1257;60272;-51
2023/08/13 10:04:12;;;;;;;9.20;1.70;;;;;;;26.55;48.20;100495.38;105563;1259;72863;-49
2023/08/13 10:06:39;;;;;;;1.30;1.20;;;;;;;26.70;47.57;100456.02;105591;1259;64579;-52
2023/08/13 10:09:06;;;;;;;2.20;1.40;;;;;;;26.79;46.50;100295.70;105557;1261;72747;-46
2023/08/13 10:11:33;;;;;;;3.60;1.40;;;;;;;26.75;47.07;100406.09;105571;1263;60212;-47
2023/08/13 10:14:01;;;;;;;8.10;1.90;;;;;;;26.76;46.34;100311.66;105687;1257;60269;-47
2023/08/13 10:16:29;;;;;;;3.80;1.40;;;;;;;26.74;45.13;100188.91;105605;1257;73419;-47
2023/08/13 10:18:58;;;;;;;3.80;1.50;;;;;;;26.74;45.14;100181.25;105643;1260;65496;-47
2023/08/13 10:21:33;;;;;;;9.80;1.70;;;;;;;26.81;44.91;100153.16;105570;1262;72972;-49
2023/08/13 10:24:02;;;;;;;3.50;1.40;;;;;;;26.88;46.79;100372.20;105569;1257;59701;-46
2023/08/13 10:26:29;;;;;;;2.10;1.70;;;;;;;26.99;45.19;100235.90;105650;1257;60295;-48
2023/08/13 10:28:56;;;;;;;3.10;1.60;;;;;;;27.01;46.80;100377.77;105640;1260;72869;-51
2023/08/13 10:31:27;;;;;;;4.20;1.70;;;;;;;27.07;45.03;100236.55;105612;1260;64584;-48
2023/08/13 10:34:11;;;;;;;1.40;1.30;;;;;;;27.05;45.23;100251.74;105787;1259;71314;-47
2023/08/13 10:37:07;;;;;;;4.00;1.60;;;;;;;27.09;45.25;100220.23;105636;1261;59698;-48
2023/08/13 10:39:41;;;;;;;2.60;1.50;;;;;;;27.18;45.79;100313.45;105669;1257;60211;-46
2023/08/13 10:42:46;;;;;;;1.80;1.30;;;;;;;27.19;45.67;100290.33;105575;1257;73040;-47
2023/08/13 10:45:14;;;;;;;3.80;1.50;;;;;;;27.27;45.43;100264.83;105586;1260;64569;-47
2023/08/13 10:47:51;;;;;;;8.20;1.40;;;;;;;27.34;44.71;100220.77;105656;1257;72626;-47
2023/08/13 10:50:31;;;;;;;8.00;1.60;;;;;;;27.47;45.18;100254.61;105545;1262;60136;-48
2023/08/13 10:53:06;;;;;;;6.50;1.70;;;;;;;27.67;46.33;100402.35;105608;1257;60251;-47
2023/08/13 10:55:40;;;;;;;2.50;1.60;;;;;;;27.83;44.25;100172.78;105644;1260;73078;-48
2023/08/13 10:58:08;;;;;;;9.20;2.30;;;;;;;27.82;44.40;100150.58;105609;1260;65421;-49
2023/08/13 11:00:42;;;;;;;3.80;1.90;;;;;;;27.94;45.50;100307.70;105586;1260;71452;-46
2023/08/13 11:03:20;;;;;;;2.80;1.60;;;;;;;27.99;45.13;100250.74;105656;1257;59619;-47
2023/08/13 11:05:48;;;;;;;3.30;1.80;;;;;;;28.09;45.06;100264.30;105585;1258;59852;-47
2023/08/13 11:08:19;;;;;;;3.60;1.80;;;;;;;28.08;44.11;100152.48;105662;1260;73180;-47
2023/08/13 11:10:57;;;;;;;3.10;2.20;;;;;;;28.09;45.00;100241.45;105605;1260;65550;-47
2023/08/13 11:13:24;;;;;;;4.30;2.10;;;;;;;28.10;44.89;100246.27;105652;1257;72683;-47
2023/08/13 11:15:54;;;;;;;5.70;2.10;;;;;;;27.98;44.48;100211.81;105621;1260;60482;-47